Time;durP1;ratioP1;P1;durP2;ratioP2;P2;SDS_P1;SDS_P2;PMS_P1;PMS_P2;Temp;Humidity;BMP_temperature;BMP_pressure;BME280_temperature;BME280_humidity;BME280_pressure;Samples;Min_cycle;Max_cycle;Signal;HPM_P1;HPM_P2
2021/05/09 00:01:48;;;;;;;1.65;1.10;;;17.70;63.90;;;;;;10544707;28;20107;-57
2021/05/09 00:06:49;;;;;;;1.80;1.20;;;17.70;63.80;;;;;;10545057;28;20016;-57
2021/05/09 00:11:50;;;;;;;3.35;1.38;;;17.70;63.70;;;;;;10558129;28;20027;-56
2021/05/09 00:16:50;;;;;;;2.13;1.02;;;17.70;63.70;;;;;;10543987;28;20039;-57
2021/05/09 00:21:51;;;;;;;3.80;1.92;;;17.70;63.70;;;;;;10544345;28;20044;-57
2021/05/09 00:26:52;;;;;;;2.30;1.02;;;17.70;63.60;;;;;;10559506;28;20077;-56
2021/05/09 00:31:52;;;;;;;1.90;1.10;;;17.60;63.70;;;;;;10558263;28;20503;-56
2021/05/09 00:36:53;;;;;;;1.73;1.00;;;17.60;63.60;;;;;;10547188;28;20442;-57
2021/05/09 00:42:06;;;;;;;1.83;1.20;;;17.60;63.60;;;;;;10564164;28;20341;-57
2021/05/09 00:47:12;;;;;;;1.63;1.20;;;17.70;63.60;;;;;;10565268;28;20032;-57
2021/05/09 00:52:13;;;;;;;2.50;1.35;;;17.60;63.50;;;;;;10557503;28;20083;-57
2021/05/09 00:57:15;;;;;;;1.70;0.90;;;17.60;63.50;;;;;;10577152;28;20058;-57
2021/05/09 01:02:17;;;;;;;1.70;0.90;;;17.60;63.50;;;;;;10537835;28;20119;-57
2021/05/09 01:07:19;;;;;;;1.73;0.95;;;17.60;64.00;;;;;;10569805;28;20036;-57
2021/05/09 01:12:20;;;;;;;3.42;1.13;;;17.60;63.40;;;;;;10552001;28;20161;-56
2021/05/09 01:17:21;;;;;;;2.15;1.05;;;17.60;63.40;;;;;;10532036;28;20162;-57
2021/05/09 01:22:21;;;;;;;1.90;0.90;;;17.60;63.40;;;;;;10541294;28;20060;-57
2021/05/09 01:27:22;;;;;;;2.63;1.20;;;17.60;63.40;;;;;;10544688;28;20111;-57
2021/05/09 01:32:23;;;;;;;2.53;1.10;;;17.60;63.40;;;;;;10541092;28;20036;-57
2021/05/09 01:37:24;;;;;;;1.63;1.00;;;17.60;63.20;;;;;;10526165;28;20036;-57
2021/05/09 01:42:24;;;;;;;1.90;1.08;;;17.60;63.10;;;;;;10542140;28;20061;-57
2021/05/09 01:47:26;;;;;;;0.93;0.70;;;17.60;63.10;;;;;;10522044;28;20440;-57
2021/05/09 01:52:26;;;;;;;0.98;0.73;;;17.60;63.00;;;;;;10522134;28;20028;-57
2021/05/09 01:57:27;;;;;;;2.30;0.98;;;17.60;63.00;;;;;;10544554;28;20032;-57
2021/05/09 02:02:28;;;;;;;1.38;0.80;;;17.60;63.00;;;;;;10550827;28;20036;-57
2021/05/09 02:07:28;;;;;;;2.55;1.10;;;17.60;62.90;;;;;;10550471;28;20115;-57
2021/05/09 02:12:31;;;;;;;2.03;1.20;;;17.70;63.00;;;;;;10567355;28;20032;-57
2021/05/09 02:17:32;;;;;;;2.38;1.20;;;17.70;63.00;;;;;;10564468;28;20031;-57
2021/05/09 02:22:33;;;;;;;2.53;1.50;;;17.70;63.00;;;;;;10559322;28;20058;-57
2021/05/09 02:27:34;;;;;;;2.25;1.30;;;17.70;63.00;;;;;;10539483;28;20020;-57
2021/05/09 02:32:35;;;;;;;1.52;0.98;;;17.70;62.90;;;;;;10520760;28;20032;-57
2021/05/09 02:37:35;;;;;;;1.63;0.75;;;17.70;62.90;;;;;;10543705;28;20127;-57
2021/05/09 02:42:36;;;;;;;2.00;1.10;;;17.70;62.90;;;;;;10577568;28;20111;-57
2021/05/09 02:47:37;;;;;;;1.70;0.82;;;17.70;62.90;;;;;;10541839;28;20032;-57
2021/05/09 02:52:37;;;;;;;1.45;1.02;;;17.70;62.80;;;;;;10547555;28;20028;-56
2021/05/09 02:57:38;;;;;;;1.90;1.02;;;17.70;62.80;;;;;;10574220;28;20028;-57
2021/05/09 03:02:39;;;;;;;1.13;0.70;;;17.70;62.80;;;;;;10529067;28;20081;-57
2021/05/09 03:07:39;;;;;;;1.63;1.08;;;17.60;62.70;;;;;;10546616;28;20161;-57
2021/05/09 03:12:40;;;;;;;1.63;1.00;;;17.70;62.70;;;;;;10555559;28;20032;-57
2021/05/09 03:17:41;;;;;;;1.02;0.80;;;17.70;62.70;;;;;;10564902;28;20464;-57
2021/05/09 03:22:42;;;;;;;1.67;1.10;;;17.70;62.70;;;;;;10557703;28;20027;-57
2021/05/09 03:27:42;;;;;;;2.08;0.85;;;17.70;62.70;;;;;;10549541;28;20028;-57
2021/05/09 03:32:43;;;;;;;2.38;1.10;;;17.60;62.60;;;;;;10546016;28;20102;-57
2021/05/09 03:37:44;;;;;;;1.67;1.00;;;17.70;62.60;;;;;;10553624;28;20036;-57
2021/05/09 03:42:44;;;;;;;1.58;1.10;;;17.60;62.50;;;;;;10557482;28;20028;-57
2021/05/09 03:47:45;;;;;;;1.58;0.93;;;17.60;62.50;;;;;;10543042;28;20398;-57
2021/05/09 03:52:46;;;;;;;1.23;0.90;;;17.60;62.50;;;;;;10545162;28;20465;-57
2021/05/09 03:57:47;;;;;;;1.58;0.90;;;17.60;62.50;;;;;;10568759;28;20032;-56
2021/05/09 04:02:48;;;;;;;2.22;1.25;;;17.70;62.50;;;;;;10544591;28;20036;-56
2021/05/09 04:07:48;;;;;;;2.05;1.33;;;17.60;62.40;;;;;;10544240;28;20030;-57
2021/05/09 04:12:49;;;;;;;1.60;0.88;;;17.60;62.40;;;;;;10565755;28;20038;-57
2021/05/09 04:17:50;;;;;;;1.20;0.80;;;17.60;62.40;;;;;;10555548;28;20035;-57
2021/05/09 04:22:50;;;;;;;1.67;1.00;;;17.70;62.40;;;;;;10568164;28;20054;-57
2021/05/09 04:27:51;;;;;;;1.80;1.30;;;17.60;62.40;;;;;;10557846;28;20071;-57
2021/05/09 04:33:00;;;;;;;1.33;1.00;;;17.60;62.40;;;;;;10559148;28;20031;-56
2021/05/09 04:38:02;;;;;;;2.03;0.90;;;17.70;62.40;;;;;;10563848;28;20109;-56
2021/05/09 04:43:11;;;;;;;2.63;1.20;;;17.60;62.40;;;;;;10549855;28;20150;-55
2021/05/09 04:48:12;;;;;;;2.03;0.80;;;17.70;62.40;;;;;;10545411;28;20111;-56
2021/05/09 04:53:35;;;;;;;1.45;0.90;;;17.60;62.30;;;;;;10548198;28;20039;-56
2021/05/09 04:58:39;;;;;;;1.90;1.17;;;17.70;62.40;;;;;;10574699;28;20550;-55
2021/05/09 05:03:40;;;;;;;1.48;0.98;;;17.70;62.50;;;;;;10535433;28;20036;-54
2021/05/09 05:08:41;;;;;;;2.60;1.10;;;17.70;62.40;;;;;;10534817;28;20085;-55
2021/05/09 05:13:42;;;;;;;1.92;1.02;;;17.70;62.40;;;;;;10535972;28;20038;-55
2021/05/09 05:18:42;;;;;;;2.85;1.10;;;17.70;62.40;;;;;;10533418;28;20036;-51
2021/05/09 05:23:43;;;;;;;4.32;1.55;;;17.60;62.60;;;;;;10566060;28;20024;-54
2021/05/09 05:28:44;;;;;;;5.15;1.40;;;17.70;64.00;;;;;;10562877;28;20479;-54
2021/05/09 05:33:44;;;;;;;4.50;1.67;;;17.70;64.60;;;;;;10568104;28;20031;-55
2021/05/09 05:38:45;;;;;;;7.43;2.20;;;17.70;64.20;;;;;;10554637;28;20155;-54
2021/05/09 05:43:46;;;;;;;8.50;1.83;;;17.70;64.40;;;;;;10543354;28;20036;-54
2021/05/09 05:48:47;;;;;;;8.40;1.67;;;17.70;65.30;;;;;;10565341;28;20118;-53
2021/05/09 05:53:47;;;;;;;5.20;2.10;;;17.70;65.20;;;;;;10562242;28;20107;-54
2021/05/09 05:58:48;;;;;;;6.85;2.13;;;17.70;64.70;;;;;;10562421;28;20110;-56
2021/05/09 06:03:49;;;;;;;5.00;1.80;;;17.70;64.70;;;;;;10552674;28;20027;-56
2021/05/09 06:08:52;;;;;;;9.23;1.85;;;17.70;64.50;;;;;;10555309;28;20112;-51
2021/05/09 06:13:53;;;;;;;3.50;1.90;;;17.70;64.50;;;;;;10568922;28;20502;-50
2021/05/09 06:18:53;;;;;;;6.90;1.92;;;17.70;64.30;;;;;;10549076;28;20115;-53
2021/05/09 06:23:54;;;;;;;5.20;1.83;;;17.60;64.20;;;;;;10539151;28;20040;-50
2021/05/09 06:28:55;;;;;;;4.82;2.03;;;17.60;64.20;;;;;;10539176;28;20054;-51
2021/05/09 06:33:55;;;;;;;7.40;2.38;;;17.60;64.10;;;;;;10539044;28;20031;-53
2021/05/09 06:38:56;;;;;;;6.15;1.80;;;17.60;64.70;;;;;;10551935;28;20052;-54
2021/05/09 06:43:59;;;;;;;3.83;1.38;;;17.60;64.10;;;;;;10538905;28;20054;-52
2021/05/09 06:49:01;;;;;;;3.63;1.55;;;17.60;64.10;;;;;;10538612;28;20025;-50
2021/05/09 06:54:02;;;;;;;5.05;1.80;;;17.60;64.10;;;;;;10545048;28;20028;-49
2021/05/09 06:59:03;;;;;;;3.40;1.40;;;17.60;64.10;;;;;;10559285;28;20387;-48
2021/05/09 07:04:04;;;;;;;2.78;1.25;;;17.50;64.00;;;;;;10538758;28;20540;-52
2021/05/09 07:09:06;;;;;;;7.65;1.77;;;17.50;64.00;;;;;;10537974;28;20042;-48
2021/05/09 07:14:07;;;;;;;9.45;1.70;;;17.60;64.60;;;;;;10543629;28;20125;-51
2021/05/09 07:19:09;;;;;;;9.15;2.13;;;17.60;64.90;;;;;;10554896;28;20032;-49
2021/05/09 07:24:10;;;;;;;12.60;2.45;;;17.60;65.30;;;;;;10555897;28;20111;-51
2021/05/09 07:29:11;;;;;;;26.10;2.80;;;17.60;65.40;;;;;;10553182;28;20032;-50
2021/05/09 07:34:13;;;;;;;32.85;3.88;;;17.60;65.80;;;;;;10559192;28;20024;-52
2021/05/09 07:39:14;;;;;;;22.33;3.05;;;17.60;66.10;;;;;;10565847;28;20507;-54
2021/05/09 07:44:14;;;;;;;27.30;3.70;;;17.70;66.30;;;;;;10565763;28;20027;-54
2021/05/09 07:49:15;;;;;;;13.63;2.40;;;17.70;66.40;;;;;;10573758;28;20110;-51
2021/05/09 07:54:16;;;;;;;11.63;2.92;;;17.70;65.90;;;;;;10534438;28;20103;-55
2021/05/09 07:59:16;;;;;;;12.13;2.60;;;17.60;65.60;;;;;;10572252;28;20055;-56
2021/05/09 08:04:17;;;;;;;13.38;2.53;;;17.70;66.30;;;;;;10565209;28;20128;-54
2021/05/09 08:09:18;;;;;;;20.85;2.78;;;17.60;65.60;;;;;;10568116;28;20166;-50
2021/05/09 08:14:19;;;;;;;8.23;2.42;;;17.60;65.50;;;;;;10551061;28;20043;-51
2021/05/09 08:19:19;;;;;;;21.88;5.30;;;17.60;65.50;;;;;;10546184;28;20115;-59
2021/05/09 08:24:20;;;;;;;9.82;2.95;;;17.60;65.70;;;;;;10566494;28;20042;-54
2021/05/09 08:29:21;;;;;;;22.77;3.63;;;17.60;66.20;;;;;;10577029;28;20028;-48
2021/05/09 08:34:23;;;;;;;8.52;2.38;;;17.60;66.60;;;;;;10572214;28;20028;-54
2021/05/09 08:39:24;;;;;;;15.77;3.25;;;17.60;66.70;;;;;;10564382;28;20051;-54
2021/05/09 08:44:24;;;;;;;37.22;4.70;;;17.70;67.10;;;;;;10560947;28;20495;-46
2021/05/09 08:49:28;;;;;;;17.33;3.22;;;17.70;66.70;;;;;;10542569;28;20426;-50
2021/05/09 08:54:29;;;;;;;14.82;3.00;;;17.80;66.80;;;;;;10524388;28;20060;-51
2021/05/09 08:59:30;;;;;;;15.30;4.10;;;17.80;66.80;;;;;;10557694;28;20031;-52
2021/05/09 09:04:51;;;;;;;19.05;3.30;;;17.80;67.00;;;;;;10566128;28;20028;-57
2021/05/09 09:09:52;;;;;;;25.33;3.75;;;17.80;66.90;;;;;;10568320;28;20445;-48
2021/05/09 09:15:00;;;;;;;9.63;2.25;;;17.90;66.90;;;;;;10557428;28;20146;-50
2021/05/09 09:20:17;;;;;;;13.35;2.53;;;17.80;66.10;;;;;;10540765;28;20044;-51
2021/05/09 09:25:19;;;;;;;15.30;3.00;;;17.80;65.90;;;;;;10564490;28;20024;-49
2021/05/09 09:30:23;;;;;;;7.20;2.20;;;17.70;65.80;;;;;;10545262;28;20027;-52
2021/05/09 09:35:29;;;;;;;14.40;3.20;;;17.70;65.80;;;;;;10550179;28;20047;-49
2021/05/09 09:40:30;;;;;;;8.20;3.45;;;17.70;65.80;;;;;;10547416;28;20032;-47
2021/05/09 09:45:38;;;;;;;4.90;3.03;;;18.10;65.80;;;;;;10542016;28;20059;-56
2021/05/09 09:50:47;;;;;;;4.50;2.78;;;18.00;65.40;;;;;;10564748;28;20090;-55
2021/05/09 09:56:12;;;;;;;4.72;2.53;;;17.90;65.80;;;;;;10519940;28;20044;-54
2021/05/09 10:01:16;;;;;;;6.43;2.55;;;17.90;65.90;;;;;;10567634;28;20030;-55
2021/05/09 10:06:17;;;;;;;5.57;2.75;;;17.90;65.90;;;;;;10578568;28;20081;-55
2021/05/09 10:11:20;;;;;;;6.78;2.83;;;17.80;65.90;;;;;;10573011;28;20401;-55
2021/05/09 10:16:29;;;;;;;5.07;2.22;;;17.80;65.90;;;;;;10538949;28;20401;-55
2021/05/09 10:21:33;;;;;;;3.88;2.20;;;17.90;65.90;;;;;;10520981;28;20032;-55
2021/05/09 10:27:03;;;;;;;4.15;1.88;;;17.90;65.90;;;;;;10503978;28;20491;-55
2021/05/09 10:32:19;;;;;;;6.43;2.72;;;17.90;65.80;;;;;;10556462;28;20089;-56
2021/05/09 10:37:39;;;;;;;5.55;2.67;;;17.90;65.80;;;;;;10564142;28;20122;-55
2021/05/09 10:42:40;;;;;;;4.53;2.40;;;17.90;65.70;;;;;;10563054;28;20114;-56
2021/05/09 10:47:40;;;;;;;3.55;1.90;;;17.90;65.70;;;;;;10520361;28;20013;-55
2021/05/09 10:52:43;;;;;;;3.63;1.88;;;17.90;65.60;;;;;;10519949;28;20120;-53
2021/05/09 10:57:46;;;;;;;2.38;1.90;;;17.90;65.60;;;;;;10539173;28;20333;-56
2021/05/09 11:02:46;;;;;;;5.00;2.08;;;17.90;65.50;;;;;;10537441;28;20040;-55
2021/05/09 11:07:47;;;;;;;3.10;2.08;;;17.80;65.50;;;;;;10538304;28;20024;-54
2021/05/09 11:13:07;;;;;;;2.67;1.58;;;17.80;65.50;;;;;;10558136;28;20070;-55
2021/05/09 11:18:15;;;;;;;3.85;2.08;;;17.80;65.50;;;;;;10546204;28;20066;-55
2021/05/09 11:23:15;;;;;;;3.03;2.15;;;17.80;65.70;;;;;;10545709;28;20028;-55
2021/05/09 11:28:27;;;;;;;2.65;1.85;;;17.90;65.70;;;;;;10545555;28;20157;-55
2021/05/09 11:33:50;;;;;;;2.50;1.35;;;17.90;65.60;;;;;;10545480;28;20056;-55
2021/05/09 11:38:51;;;;;;;3.47;1.73;;;17.90;65.60;;;;;;10562324;28;20135;-54
2021/05/09 11:44:04;;;;;;;3.75;1.50;;;17.90;65.50;;;;;;10541418;28;20032;-54
2021/05/09 11:49:24;;;;;;;2.70;1.77;;;17.90;65.50;;;;;;10544176;28;20024;-56
2021/05/09 11:54:29;;;;;;;3.03;1.83;;;17.90;65.50;;;;;;10544153;28;20063;-54
2021/05/09 11:59:38;;;;;;;2.53;1.50;;;17.90;65.40;;;;;;10525582;28;20035;-55
2021/05/09 12:04:40;;;;;;;3.67;2.00;;;17.90;65.40;;;;;;10543667;28;20058;-56
2021/05/09 12:09:42;;;;;;;5.78;1.40;;;17.80;65.40;;;;;;10525298;28;20108;-57
2021/05/09 12:14:42;;;;;;;2.42;1.42;;;17.80;65.40;;;;;;10543434;28;20460;-55
2021/05/09 12:19:43;;;;;;;3.53;1.70;;;17.80;65.40;;;;;;10524211;28;20054;-55
2021/05/09 12:24:52;;;;;;;3.17;2.00;;;17.80;65.30;;;;;;10524819;28;20051;-56
2021/05/09 12:29:57;;;;;;;3.25;1.90;;;17.80;65.40;;;;;;10542226;28;20028;-54
2021/05/09 12:35:15;;;;;;;4.65;2.80;;;17.80;65.60;;;;;;10524438;28;20438;-54
2021/05/09 12:40:18;;;;;;;5.22;2.35;;;17.80;65.40;;;;;;10569009;28;20451;-48
2021/05/09 12:45:36;;;;;;;10.43;2.42;;;17.80;65.80;;;;;;10564310;28;20019;-49
2021/05/09 12:50:57;;;;;;;16.23;2.65;;;17.80;66.80;;;;;;10578845;28;20037;-51
2021/05/09 12:56:26;;;;;;;18.42;3.60;;;17.80;67.50;;;;;;10561421;28;20080;-49
2021/05/09 13:01:28;;;;;;;9.40;2.95;;;17.90;67.50;;;;;;10566032;28;20031;-53
2021/05/09 13:06:29;;;;;;;16.40;3.78;;;17.90;67.40;;;;;;10564965;28;20054;-52
2021/05/09 13:11:30;;;;;;;23.27;4.10;;;17.90;66.60;;;;;;10552775;28;20024;-50
2021/05/09 13:16:31;;;;;;;15.82;3.20;;;18.00;67.90;;;;;;10548884;28;20119;-55
2021/05/09 13:21:31;;;;;;;21.25;2.90;;;18.00;66.80;;;;;;10565542;28;20153;-50
2021/05/09 13:26:32;;;;;;;7.45;2.70;;;18.00;67.50;;;;;;10520837;28;20017;-56
2021/05/09 13:31:33;;;;;;;6.53;2.85;;;18.00;69.10;;;;;;10539380;28;20036;-55
2021/05/09 13:36:35;;;;;;;6.18;2.85;;;18.10;68.80;;;;;;10557513;28;20376;-55
2021/05/09 13:41:36;;;;;;;11.02;4.05;;;18.10;67.30;;;;;;10555048;28;20032;-58
2021/05/09 13:46:36;;;;;;;5.13;2.65;;;18.10;68.60;;;;;;10540672;28;20054;-58
2021/05/09 13:51:37;;;;;;;7.18;2.28;;;18.10;66.70;;;;;;10540053;28;20109;-58
2021/05/09 13:56:38;;;;;;;6.32;2.13;;;18.10;66.40;;;;;;10542434;28;20039;-56
2021/05/09 14:01:39;;;;;;;5.28;2.40;;;18.10;66.30;;;;;;10570118;28;20104;-57
2021/05/09 14:06:39;;;;;;;6.43;2.47;;;18.10;66.20;;;;;;10545972;28;20421;-57
2021/05/09 14:11:40;;;;;;;6.78;2.15;;;18.20;66.30;;;;;;10560627;28;20032;-58
2021/05/09 14:16:41;;;;;;;4.55;2.30;;;18.20;66.30;;;;;;10548423;28;20508;-57
2021/05/09 14:21:41;;;;;;;6.57;3.33;;;18.30;66.70;;;;;;10549623;28;20494;-57
2021/05/09 14:26:42;;;;;;;4.90;3.63;;;18.30;67.70;;;;;;10539252;28;20103;-57
2021/05/09 14:31:43;;;;;;;5.80;3.33;;;18.40;68.80;;;;;;10556359;28;20031;-57
2021/05/09 14:36:44;;;;;;;4.30;3.20;;;18.40;69.00;;;;;;10560770;28;20097;-57
2021/05/09 14:41:44;;;;;;;6.18;3.47;;;18.40;68.90;;;;;;10556313;28;20115;-57
2021/05/09 14:46:45;;;;;;;6.30;3.20;;;18.40;69.00;;;;;;10564881;28;20028;-58
2021/05/09 14:51:46;;;;;;;4.93;3.38;;;18.50;69.40;;;;;;10552612;28;20028;-58
2021/05/09 14:56:47;;;;;;;6.38;2.88;;;18.50;68.80;;;;;;10572555;28;20063;-58
2021/05/09 15:01:48;;;;;;;7.18;3.28;;;18.50;68.50;;;;;;10541258;28;20032;-56
2021/05/09 15:06:51;;;;;;;4.20;3.13;;;18.50;68.70;;;;;;10566990;28;20057;-57
2021/05/09 15:11:51;;;;;;;5.13;3.67;;;18.50;68.50;;;;;;10540625;28;20031;-57
2021/05/09 15:16:52;;;;;;;4.40;3.13;;;18.60;68.70;;;;;;10580173;28;20103;-57
2021/05/09 15:21:53;;;;;;;3.65;3.00;;;18.60;68.50;;;;;;10565809;28;20032;-58
2021/05/09 15:26:54;;;;;;;6.63;3.47;;;18.60;68.50;;;;;;10565032;28;20029;-57
2021/05/09 15:31:56;;;;;;;4.60;3.30;;;18.60;68.40;;;;;;10551576;28;20067;-57
2021/05/09 15:36:56;;;;;;;4.38;3.40;;;18.60;68.40;;;;;;10563854;28;20047;-57
2021/05/09 15:41:57;;;;;;;6.63;3.95;;;18.60;68.40;;;;;;10586506;28;20469;-56
2021/05/09 15:47:00;;;;;;;4.10;3.50;;;18.60;68.50;;;;;;10536834;28;20016;-57
2021/05/09 15:52:02;;;;;;;6.13;4.07;;;18.60;68.60;;;;;;10559889;28;20387;-57
2021/05/09 15:57:03;;;;;;;6.05;3.65;;;18.70;69.10;;;;;;10544733;28;20118;-57
2021/05/09 16:02:05;;;;;;;8.82;3.53;;;18.80;69.30;;;;;;10563438;28;20032;-56
2021/05/09 16:07:06;;;;;;;12.57;4.47;;;18.90;69.90;;;;;;10577445;28;20035;-58
2021/05/09 16:12:07;;;;;;;17.80;5.60;;;19.00;71.20;;;;;;10562728;28;20028;-55
2021/05/09 16:17:07;;;;;;;17.60;5.43;;;19.10;72.40;;;;;;10543973;28;20103;-55
2021/05/09 16:22:08;;;;;;;20.65;4.70;;;19.20;72.20;;;;;;10544697;28;20118;-56
2021/05/09 16:27:09;;;;;;;11.32;4.80;;;19.40;71.50;;;;;;10560596;28;20032;-56
2021/05/09 16:32:10;;;;;;;8.73;4.65;;;19.40;71.60;;;;;;10543813;28;20051;-55
2021/05/09 16:37:11;;;;;;;9.38;4.78;;;19.40;71.00;;;;;;10540404;28;20488;-56
2021/05/09 16:42:11;;;;;;;8.95;4.32;;;19.40;71.00;;;;;;10558731;28;20032;-57
2021/05/09 16:47:12;;;;;;;9.48;4.35;;;19.30;70.70;;;;;;10566222;28;20383;-56
2021/05/09 16:52:19;;;;;;;7.75;4.45;;;19.30;70.70;;;;;;10525066;28;20115;-57
2021/05/09 16:57:20;;;;;;;10.60;5.13;;;19.30;70.70;;;;;;10542276;28;20106;-58
2021/05/09 17:02:21;;;;;;;8.00;4.68;;;19.20;70.60;;;;;;10557424;28;20127;-57
2021/05/09 17:07:21;;;;;;;10.40;5.10;;;19.20;70.20;;;;;;10541516;28;20024;-56
2021/05/09 17:12:25;;;;;;;5.88;3.85;;;19.20;70.10;;;;;;10538901;28;20095;-57
2021/05/09 17:17:25;;;;;;;6.82;4.30;;;19.20;69.90;;;;;;10550192;28;20048;-58
2021/05/09 17:22:26;;;;;;;11.32;4.50;;;19.20;70.30;;;;;;10549670;28;20023;-57
2021/05/09 17:27:27;;;;;;;7.22;3.90;;;19.20;70.20;;;;;;10576931;28;20352;-58
2021/05/09 17:32:28;;;;;;;9.98;4.45;;;19.20;70.30;;;;;;10562267;28;20032;-56
2021/05/09 17:37:28;;;;;;;5.78;4.47;;;19.20;70.60;;;;;;10561846;28;20119;-56
2021/05/09 17:42:29;;;;;;;8.40;4.28;;;19.20;70.30;;;;;;10558318;28;20024;-52
2021/05/09 17:47:30;;;;;;;6.05;4.75;;;19.20;70.30;;;;;;10562964;28;20020;-57
2021/05/09 17:52:31;;;;;;;5.43;4.03;;;19.20;70.20;;;;;;10563055;28;20028;-57
2021/05/09 17:57:31;;;;;;;7.75;3.88;;;19.20;69.80;;;;;;10561565;28;20454;-56
2021/05/09 18:02:32;;;;;;;7.72;4.75;;;19.20;69.70;;;;;;10562082;28;20057;-58
2021/05/09 18:07:37;;;;;;;7.47;4.70;;;19.10;70.30;;;;;;10565478;28;20421;-55
2021/05/09 18:12:39;;;;;;;10.90;4.38;;;19.10;70.20;;;;;;10557698;28;20032;-57
2021/05/09 18:17:56;;;;;;;7.43;3.88;;;19.10;70.00;;;;;;10561908;28;20476;-56
2021/05/09 18:22:59;;;;;;;5.97;3.97;;;19.10;70.00;;;;;;10528556;28;20036;-57
2021/05/09 18:28:00;;;;;;;9.75;4.55;;;19.10;69.90;;;;;;10561746;28;20031;-57
2021/05/09 18:33:01;;;;;;;5.68;4.57;;;19.00;70.90;;;;;;10562873;28;20368;-58
2021/05/09 18:38:02;;;;;;;8.27;4.53;;;19.00;71.20;;;;;;10561117;28;20122;-58
2021/05/09 18:43:03;;;;;;;8.02;4.90;;;19.00;71.10;;;;;;10562144;28;20027;-56
2021/05/09 18:48:06;;;;;;;7.45;4.50;;;19.00;70.60;;;;;;10542081;28;20027;-56
2021/05/09 18:53:07;;;;;;;6.47;4.95;;;19.00;70.50;;;;;;10561491;28;20107;-56
2021/05/09 18:58:08;;;;;;;6.75;4.53;;;19.00;70.20;;;;;;10562446;28;20024;-56
2021/05/09 19:03:09;;;;;;;6.75;5.28;;;19.00;70.50;;;;;;10543651;28;20038;-56
2021/05/09 19:08:10;;;;;;;5.20;4.55;;;19.00;70.90;;;;;;10562385;28;20123;-52
2021/05/09 19:13:11;;;;;;;5.45;4.13;;;19.00;69.90;;;;;;10576635;28;20144;-55
2021/05/09 19:18:11;;;;;;;6.60;4.15;;;19.00;69.60;;;;;;10562239;28;20165;-52
2021/05/09 19:23:12;;;;;;;7.18;4.40;;;19.00;69.40;;;;;;10577859;28;20472;-53
2021/05/09 19:28:13;;;;;;;5.80;3.95;;;19.00;69.50;;;;;;10548723;28;20485;-53
2021/05/09 19:33:14;;;;;;;8.15;4.05;;;19.00;69.40;;;;;;10538079;28;20024;-53
2021/05/09 19:38:14;;;;;;;5.70;4.20;;;19.00;69.80;;;;;;10571329;28;20054;-54
2021/05/09 19:43:15;;;;;;;7.38;4.40;;;19.00;68.90;;;;;;10552735;28;20036;-54
2021/05/09 19:48:16;;;;;;;5.18;4.35;;;19.00;68.80;;;;;;10561100;28;20031;-54
2021/05/09 19:53:18;;;;;;;7.45;4.10;;;19.00;68.70;;;;;;10564436;28;20038;-54
2021/05/09 19:58:20;;;;;;;5.10;3.47;;;19.00;68.50;;;;;;10561503;28;20035;-54
2021/05/09 20:03:21;;;;;;;7.35;4.13;;;18.90;68.40;;;;;;10549034;28;20386;-54
2021/05/09 20:08:22;;;;;;;3.90;3.47;;;18.90;68.30;;;;;;10566471;28;20088;-53
2021/05/09 20:13:23;;;;;;;7.30;4.15;;;18.90;68.30;;;;;;10561558;28;20384;-53
2021/05/09 20:18:23;;;;;;;4.80;4.20;;;18.90;68.10;;;;;;10566594;28;20030;-54
2021/05/09 20:23:24;;;;;;;4.05;3.65;;;18.90;68.00;;;;;;10567273;28;20115;-54
2021/05/09 20:28:25;;;;;;;4.30;3.90;;;18.90;67.90;;;;;;10567279;28;20445;-54
2021/05/09 20:33:25;;;;;;;5.22;3.60;;;18.90;67.80;;;;;;10566610;28;20104;-53
2021/05/09 20:38:26;;;;;;;3.92;3.42;;;18.90;67.70;;;;;;10560266;28;20099;-51
2021/05/09 20:43:27;;;;;;;4.40;3.63;;;18.90;67.70;;;;;;10542368;28;20494;-50
2021/05/09 20:48:28;;;;;;;8.40;4.90;;;18.80;67.50;;;;;;10542893;28;20539;-54
2021/05/09 20:53:29;;;;;;;4.93;3.30;;;18.80;67.50;;;;;;10543076;28;20428;-53
2021/05/09 20:58:30;;;;;;;5.30;3.95;;;18.80;67.40;;;;;;10560823;28;20031;-52
2021/05/09 21:03:31;;;;;;;6.80;3.45;;;18.90;67.40;;;;;;10555292;28;20115;-53
2021/05/09 21:08:32;;;;;;;4.65;3.80;;;18.80;67.40;;;;;;10550988;28;20147;-54
2021/05/09 21:13:33;;;;;;;5.47;3.85;;;18.80;67.30;;;;;;10555015;28;20107;-53
2021/05/09 21:18:33;;;;;;;5.72;3.53;;;18.80;67.30;;;;;;10566756;28;20036;-53
2021/05/09 21:23:34;;;;;;;4.85;4.22;;;18.80;67.20;;;;;;10541233;28;20043;-54
2021/05/09 21:28:35;;;;;;;5.03;3.78;;;18.80;67.20;;;;;;10541345;28;20134;-53
2021/05/09 21:33:35;;;;;;;4.35;3.60;;;18.80;67.10;;;;;;10541196;28;20111;-53
2021/05/09 21:38:36;;;;;;;4.65;4.18;;;18.80;67.20;;;;;;10553895;28;20176;-54
2021/05/09 21:43:37;;;;;;;5.10;3.70;;;18.80;67.10;;;;;;10522309;28;20020;-52
2021/05/09 21:48:38;;;;;;;5.68;3.70;;;18.80;67.00;;;;;;10540912;28;20043;-55
2021/05/09 21:53:38;;;;;;;4.55;3.45;;;18.80;67.00;;;;;;10521392;28;20029;-54
2021/05/09 21:58:39;;;;;;;5.05;3.72;;;18.80;67.00;;;;;;10523358;28;20115;-53
2021/05/09 22:03:40;;;;;;;4.82;3.42;;;18.80;67.00;;;;;;10575368;28;20098;-52
2021/05/09 22:08:41;;;;;;;4.88;3.70;;;18.80;67.00;;;;;;10549661;28;20488;-54
2021/05/09 22:13:41;;;;;;;3.97;3.40;;;18.70;66.90;;;;;;10571009;28;20118;-51
2021/05/09 22:18:42;;;;;;;4.18;3.60;;;18.80;66.90;;;;;;10547093;28;20074;-54
2021/05/09 22:23:43;;;;;;;5.15;4.10;;;18.80;66.90;;;;;;10520891;28;20497;-53
2021/05/09 22:28:43;;;;;;;4.55;3.63;;;18.70;66.90;;;;;;10572820;28;20560;-52
2021/05/09 22:33:44;;;;;;;3.80;3.45;;;18.80;66.90;;;;;;10563098;28;20134;-51
2021/05/09 22:38:45;;;;;;;3.25;2.95;;;18.80;66.90;;;;;;10537374;28;20101;-54
2021/05/09 22:43:45;;;;;;;4.20;3.60;;;18.80;66.90;;;;;;10523319;28;20114;-52
2021/05/09 22:48:46;;;;;;;3.55;3.20;;;18.70;66.80;;;;;;10561830;28;20043;-54
2021/05/09 22:53:47;;;;;;;4.28;3.88;;;18.70;66.80;;;;;;10538783;28;20035;-51
2021/05/09 22:58:48;;;;;;;3.63;3.25;;;18.70;66.80;;;;;;10540417;28;20115;-55
2021/05/09 23:03:49;;;;;;;4.28;3.30;;;18.80;66.80;;;;;;10556211;28;20028;-54
2021/05/09 23:08:50;;;;;;;3.95;3.20;;;18.80;66.80;;;;;;10547326;28;20488;-52
2021/05/09 23:13:50;;;;;;;5.63;3.20;;;18.80;66.80;;;;;;10574824;28;20118;-51
2021/05/09 23:23:54;;;;;;;3.50;2.95;;;18.70;66.80;;;;;;10551228;28;20043;-50
2021/05/09 23:28:55;;;;;;;4.00;3.38;;;18.70;66.80;;;;;;10567395;28;20058;-53
2021/05/09 23:33:56;;;;;;;3.72;3.05;;;18.70;66.80;;;;;;10577038;28;20032;-54
2021/05/09 23:38:57;;;;;;;3.50;2.92;;;18.70;66.80;;;;;;10571267;28;20052;-53
2021/05/09 23:43:58;;;;;;;4.95;3.55;;;18.70;66.80;;;;;;10529819;28;20043;-49
2021/05/09 23:48:59;;;;;;;4.85;3.70;;;18.70;67.00;;;;;;10564515;28;20028;-52
2021/05/09 23:53:59;;;;;;;3.85;3.22;;;18.70;66.80;;;;;;10546327;28;20038;-53
2021/05/09 23:59:00;;;;;;;5.10;3.53;;;18.70;66.80;;;;;;10568306;28;20103;-52
